sensor_id;sensor_type;location;lat;lon;timestamp;pressure;altitude;pressure_sealevel;temperature;humidity
32875;BME280;40468;42.128;24.750;2023-03-03T00:00:29;100048.06;;;5.12;88.82
32875;BME280;40468;42.128;24.750;2023-03-03T00:02:00;100042.91;;;5.11;88.81
32875;BME280;40468;42.128;24.750;2023-03-03T00:03:32;100041.19;;;5.11;88.80
32875;BME280;40468;42.128;24.750;2023-03-03T00:05:04;100043.69;;;5.14;88.90
32875;BME280;40468;42.128;24.750;2023-03-03T00:06:34;100035.88;;;5.17;88.96
32875;BME280;40468;42.128;24.750;2023-03-03T00:08:08;100032.44;;;5.18;88.63
32875;BME280;40468;42.128;24.750;2023-03-03T00:09:39;100032.41;;;5.20;88.74
32875;BME280;40468;42.128;24.750;2023-03-03T00:11:11;100030.66;;;5.20;88.54
32875;BME280;40468;42.128;24.750;2023-03-03T00:12:45;100026.34;;;5.22;88.52
32875;BME280;40468;42.128;24.750;2023-03-03T00:14:17;100023.75;;;5.24;88.56
32875;BME280;40468;42.128;24.750;2023-03-03T00:15:52;100023.69;;;5.25;88.48
32875;BME280;40468;42.128;24.750;2023-03-03T00:17:24;100018.50;;;5.27;88.47
32875;BME280;40468;42.128;24.750;2023-03-03T00:18:55;100013.31;;;5.29;88.23
32875;BME280;40468;42.128;24.750;2023-03-03T00:20:32;100013.28;;;5.30;88.38
32875;BME280;40468;42.128;24.750;2023-03-03T00:22:06;100008.97;;;5.31;88.30
32875;BME280;40468;42.128;24.750;2023-03-03T00:23:46;100004.66;;;5.31;88.09
32875;BME280;40468;42.128;24.750;2023-03-03T00:25:24;100006.41;;;5.29;88.05
32875;BME280;40468;42.128;24.750;2023-03-03T00:27:00;100000.31;;;5.32;88.16
32875;BME280;40468;42.128;24.750;2023-03-03T00:28:38;99993.47;;;5.31;88.19
32875;BME280;40468;42.128;24.750;2023-03-03T00:30:16;99993.47;;;5.31;88.18
32875;BME280;40468;42.128;24.750;2023-03-03T00:31:48;99989.16;;;5.31;87.97
32875;BME280;40468;42.128;24.750;2023-03-03T00:33:30;99990.84;;;5.32;87.95
32875;BME280;40468;42.128;24.750;2023-03-03T00:35:16;99990.00;;;5.32;87.85
32875;BME280;40468;42.128;24.750;2023-03-03T00:36:50;99987.47;;;5.30;87.79
32875;BME280;40468;42.128;24.750;2023-03-03T00:38:23;99981.44;;;5.30;87.92
32875;BME280;40468;42.128;24.750;2023-03-03T00:40:02;99974.56;;;5.29;87.81
32875;BME280;40468;42.128;24.750;2023-03-03T00:41:38;99972.81;;;5.31;87.77
32875;BME280;40468;42.128;24.750;2023-03-03T00:43:16;99973.66;;;5.33;87.81
32875;BME280;40468;42.128;24.750;2023-03-03T00:44:52;99974.44;;;5.35;87.83
32875;BME280;40468;42.128;24.750;2023-03-03T00:46:26;99973.56;;;5.36;87.70
32875;BME280;40468;42.128;24.750;2023-03-03T00:48:07;99973.53;;;5.37;87.62
32875;BME280;40468;42.128;24.750;2023-03-03T00:49:40;99966.59;;;5.39;87.52
32875;BME280;40468;42.128;24.750;2023-03-03T00:51:18;99964.84;;;5.41;87.42
32875;BME280;40468;42.128;24.750;2023-03-03T00:52:52;99965.69;;;5.42;87.43
32875;BME280;40468;42.128;24.750;2023-03-03T00:54:25;99964.84;;;5.41;87.26
32875;BME280;40468;42.128;24.750;2023-03-03T00:55:58;99966.50;;;5.44;87.27
32875;BME280;40468;42.128;24.750;2023-03-03T00:57:30;99961.31;;;5.45;87.22
32875;BME280;40468;42.128;24.750;2023-03-03T00:59:00;99962.16;;;5.46;87.34
32875;BME280;40468;42.128;24.750;2023-03-03T01:00:32;99948.34;;;5.47;87.31
32875;BME280;40468;42.128;24.750;2023-03-03T01:02:02;99961.25;;;5.48;87.11
32875;BME280;40468;42.128;24.750;2023-03-03T01:03:34;99953.50;;;5.48;87.13
32875;BME280;40468;42.128;24.750;2023-03-03T01:05:06;99957.75;;;5.51;87.26
32875;BME280;40468;42.128;24.750;2023-03-03T01:06:37;99949.94;;;5.54;87.11
32875;BME280;40468;42.128;24.750;2023-03-03T01:08:08;99954.19;;;5.55;86.89
32875;BME280;40468;42.128;24.750;2023-03-03T01:09:39;99952.47;;;5.56;86.97
32875;BME280;40468;42.128;24.750;2023-03-03T01:11:13;99952.47;;;5.56;86.82
32875;BME280;40468;42.128;24.750;2023-03-03T01:12:45;99949.84;;;5.57;86.80
32875;BME280;40468;42.128;24.750;2023-03-03T01:14:17;99957.59;;;5.57;86.84
32875;BME280;40468;42.128;24.750;2023-03-03T01:15:48;99956.72;;;5.58;86.76
32875;BME280;40468;42.128;24.750;2023-03-03T01:17:20;99957.53;;;5.60;86.89
32875;BME280;40468;42.128;24.750;2023-03-03T01:18:51;99949.78;;;5.60;86.60
32875;BME280;40468;42.128;24.750;2023-03-03T01:20:22;99952.38;;;5.60;86.53
32875;BME280;40468;42.128;24.750;2023-03-03T01:21:53;99953.25;;;5.59;86.44
32875;BME280;40468;42.128;24.750;2023-03-03T01:23:24;99955.03;;;5.57;86.47
32875;BME280;40468;42.128;24.750;2023-03-03T01:24:56;99958.50;;;5.56;86.63
32875;BME280;40468;42.128;24.750;2023-03-03T01:26:28;99954.19;;;5.57;86.59
32875;BME280;40468;42.128;24.750;2023-03-03T01:28:00;99958.44;;;5.58;86.61
32875;BME280;40468;42.128;24.750;2023-03-03T01:29:31;99954.13;;;5.58;86.34
32875;BME280;40468;42.128;24.750;2023-03-03T01:31:03;99954.13;;;5.60;86.36
32875;BME280;40468;42.128;24.750;2023-03-03T01:32:35;99958.38;;;5.61;86.33
32875;BME280;40468;42.128;24.750;2023-03-03T01:34:07;99954.06;;;5.61;86.47
32875;BME280;40468;42.128;24.750;2023-03-03T01:35:42;99956.56;;;5.64;86.44
32875;BME280;40468;42.128;24.750;2023-03-03T01:37:12;99951.41;;;5.64;86.33
32875;BME280;40468;42.128;24.750;2023-03-03T01:38:44;99948.75;;;5.67;86.19
32875;BME280;40468;42.128;24.750;2023-03-03T01:40:16;99952.16;;;5.69;86.00
32875;BME280;40468;42.128;24.750;2023-03-03T01:41:50;99957.25;;;5.73;86.01
32875;BME280;40468;42.128;24.750;2023-03-03T01:43:21;99954.66;;;5.74;86.00
32875;BME280;40468;42.128;24.750;2023-03-03T01:46:45;99955.44;;;5.76;86.06
32875;BME280;40468;42.128;24.750;2023-03-03T01:48:19;99945.09;;;5.76;86.13
32875;BME280;40468;42.128;24.750;2023-03-03T01:49:54;99950.25;;;5.78;85.83
32875;BME280;40468;42.128;24.750;2023-03-03T01:51:26;99947.69;;;5.78;85.78
32875;BME280;40468;42.128;24.750;2023-03-03T01:52:59;99945.09;;;5.78;85.92
32875;BME280;40468;42.128;24.750;2023-03-03T01:54:34;99951.09;;;5.78;85.96
32875;BME280;40468;42.128;24.750;2023-03-03T01:56:06;99938.19;;;5.78;85.67
32875;BME280;40468;42.128;24.750;2023-03-03T01:57:41;99944.19;;;5.79;85.81
32875;BME280;40468;42.128;24.750;2023-03-03T01:59:15;99938.16;;;5.80;85.80
32875;BME280;40468;42.128;24.750;2023-03-03T02:00:49;99942.44;;;5.81;85.87
32875;BME280;40468;42.128;24.750;2023-03-03T02:02:21;99936.41;;;5.80;85.48
32875;BME280;40468;42.128;24.750;2023-03-03T02:03:53;99933.84;;;5.79;85.59
32875;BME280;40468;42.128;24.750;2023-03-03T02:05:24;99928.69;;;5.79;85.59
32875;BME280;40468;42.128;24.750;2023-03-03T02:06:56;99927.00;;;5.78;85.51
32875;BME280;40468;42.128;24.750;2023-03-03T02:08:32;99933.84;;;5.79;85.33
32875;BME280;40468;42.128;24.750;2023-03-03T02:10:08;99931.25;;;5.80;85.47
32875;BME280;40468;42.128;24.750;2023-03-03T02:11:41;99930.34;;;5.81;85.38
32875;BME280;40468;42.128;24.750;2023-03-03T02:13:15;99923.50;;;5.80;85.12
32875;BME280;40468;42.128;24.750;2023-03-03T02:14:46;99931.19;;;5.82;85.11
32875;BME280;40468;42.128;24.750;2023-03-03T02:16:18;99927.75;;;5.83;85.00
32875;BME280;40468;42.128;24.750;2023-03-03T02:17:52;99928.63;;;5.82;85.15
32875;BME280;40468;42.128;24.750;2023-03-03T02:19:26;99929.47;;;5.82;85.12
32875;BME280;40468;42.128;24.750;2023-03-03T02:21:01;99925.19;;;5.81;84.97
32875;BME280;40468;42.128;24.750;2023-03-03T02:22:37;99926.09;;;5.80;84.82
32875;BME280;40468;42.128;24.750;2023-03-03T02:24:14;99930.41;;;5.80;84.73
32875;BME280;40468;42.128;24.750;2023-03-03T02:25:50;99928.69;;;5.79;84.82
32875;BME280;40468;42.128;24.750;2023-03-03T02:27:25;99928.75;;;5.77;84.65
32875;BME280;40468;42.128;24.750;2023-03-03T02:28:55;99933.03;;;5.77;84.71
32875;BME280;40468;42.128;24.750;2023-03-03T02:30:27;99932.25;;;5.75;84.67
32875;BME280;40468;42.128;24.750;2023-03-03T02:31:58;99930.53;;;5.74;84.61
32875;BME280;40468;42.128;24.750;2023-03-03T02:33:29;99926.22;;;5.74;84.34
32875;BME280;40468;42.128;24.750;2023-03-03T02:35:18;99926.25;;;5.73;84.55
32875;BME280;40468;42.128;24.750;2023-03-03T02:36:52;99928.84;;;5.73;84.55
32875;BME280;40468;42.128;24.750;2023-03-03T02:38:25;99924.56;;;5.72;84.32
32875;BME280;40468;42.128;24.750;2023-03-03T02:39:57;99922.84;;;5.70;84.37
32875;BME280;40468;42.128;24.750;2023-03-03T02:41:29;99920.25;;;5.70;84.10
32875;BME280;40468;42.128;24.750;2023-03-03T02:43:03;99919.41;;;5.72;84.17
32875;BME280;40468;42.128;24.750;2023-03-03T02:44:35;99927.09;;;5.73;84.05
32875;BME280;40468;42.128;24.750;2023-03-03T02:46:07;99922.78;;;5.74;84.05
32875;BME280;40468;42.128;24.750;2023-03-03T02:47:37;99926.22;;;5.74;84.20
32875;BME280;40468;42.128;24.750;2023-03-03T02:49:09;99923.59;;;5.76;84.10
32875;BME280;40468;42.128;24.750;2023-03-03T02:50:41;99925.28;;;5.77;84.00
32875;BME280;40468;42.128;24.750;2023-03-03T02:52:13;99922.75;;;5.75;84.00
32875;BME280;40468;42.128;24.750;2023-03-03T02:53:47;99922.78;;;5.74;84.02
32875;BME280;40468;42.128;24.750;2023-03-03T02:55:18;99927.94;;;5.74;83.87
32875;BME280;40468;42.128;24.750;2023-03-03T02:56:49;99928.84;;;5.73;84.02
32875;BME280;40468;42.128;24.750;2023-03-03T02:58:22;99928.84;;;5.73;83.99
32875;BME280;40468;42.128;24.750;2023-03-03T02:59:53;99926.25;;;5.73;84.00
32875;BME280;40468;42.128;24.750;2023-03-03T03:01:25;99930.53;;;5.74;83.85
32875;BME280;40468;42.128;24.750;2023-03-03T03:02:56;99933.97;;;5.74;83.92
32875;BME280;40468;42.128;24.750;2023-03-03T03:04:28;99921.09;;;5.73;83.80
32875;BME280;40468;42.128;24.750;2023-03-03T03:05:59;99926.19;;;5.76;83.78
32875;BME280;40468;42.128;24.750;2023-03-03T03:07:30;99927.06;;;5.75;83.57
32875;BME280;40468;42.128;24.750;2023-03-03T03:09:02;99930.53;;;5.74;83.57
32875;BME280;40468;42.128;24.750;2023-03-03T03:10:34;99932.34;;;5.70;83.54
32875;BME280;40468;42.128;24.750;2023-03-03T03:12:04;99929.88;;;5.65;83.67
32875;BME280;40468;42.128;24.750;2023-03-03T03:13:38;99924.81;;;5.61;83.63
32875;BME280;40468;42.128;24.750;2023-03-03T03:15:09;99930.03;;;5.58;83.44
32875;BME280;40468;42.128;24.750;2023-03-03T03:16:41;99926.63;;;5.56;83.62
32875;BME280;40468;42.128;24.750;2023-03-03T03:18:13;99925.84;;;5.52;83.49
32875;BME280;40468;42.128;24.750;2023-03-03T03:19:44;99916.50;;;5.48;83.36
32875;BME280;40468;42.128;24.750;2023-03-03T03:21:15;99923.47;;;5.44;83.22
32875;BME280;40468;42.128;24.750;2023-03-03T03:22:46;99919.16;;;5.43;83.45
32875;BME280;40468;42.128;24.750;2023-03-03T03:24:17;99914.97;;;5.39;83.29
32875;BME280;40468;42.128;24.750;2023-03-03T03:25:49;99914.97;;;5.38;83.43
32875;BME280;40468;42.128;24.750;2023-03-03T03:27:19;99915.88;;;5.35;83.40
32875;BME280;40468;42.128;24.750;2023-03-03T03:28:53;99909.09;;;5.33;83.30
32875;BME280;40468;42.128;24.750;2023-03-03T03:30:25;99916.91;;;5.30;83.23
32875;BME280;40468;42.128;24.750;2023-03-03T03:31:56;99917.75;;;5.29;83.20
32875;BME280;40468;42.128;24.750;2023-03-03T03:33:27;99912.66;;;5.25;83.33
32875;BME280;40468;42.128;24.750;2023-03-03T03:34:59;99920.47;;;5.22;83.31
32875;BME280;40468;42.128;24.750;2023-03-03T03:36:30;99914.50;;;5.20;83.14
32875;BME280;40468;42.128;24.750;2023-03-03T03:38:02;99915.38;;;5.19;83.14
32875;BME280;40468;42.128;24.750;2023-03-03T03:39:33;99903.38;;;5.17;83.17
32875;BME280;40468;42.128;24.750;2023-03-03T03:41:05;99912.91;;;5.15;83.36
32875;BME280;40468;42.128;24.750;2023-03-03T03:42:37;99912.94;;;5.13;83.37
32875;BME280;40468;42.128;24.750;2023-03-03T03:44:10;99913.84;;;5.11;83.26
32875;BME280;40468;42.128;24.750;2023-03-03T03:45:41;99917.31;;;5.10;83.32
32875;BME280;40468;42.128;24.750;2023-03-03T03:47:13;99913.00;;;5.09;83.30
32875;BME280;40468;42.128;24.750;2023-03-03T03:48:45;99910.47;;;5.07;83.25
32875;BME280;40468;42.128;24.750;2023-03-03T03:50:16;99916.53;;;5.06;83.39
32875;BME280;40468;42.128;24.750;2023-03-03T03:51:47;99917.38;;;5.07;83.25
32875;BME280;40468;42.128;24.750;2023-03-03T03:53:18;99923.41;;;5.06;83.17
32875;BME280;40468;42.128;24.750;2023-03-03T03:54:49;99913.06;;;5.06;83.33
32875;BME280;40468;42.128;24.750;2023-03-03T03:56:20;99915.72;;;5.04;83.36
32875;BME280;40468;42.128;24.750;2023-03-03T03:57:52;99909.72;;;5.02;83.43
32875;BME280;40468;42.128;24.750;2023-03-03T03:59:24;99913.22;;;4.99;83.30
32875;BME280;40468;42.128;24.750;2023-03-03T04:01:00;99912.38;;;4.99;83.44
32875;BME280;40468;42.128;24.750;2023-03-03T04:02:32;99914.94;;;4.99;83.51
32875;BME280;40468;42.128;24.750;2023-03-03T04:04:03;99910.69;;;4.98;83.60
32875;BME280;40468;42.128;24.750;2023-03-03T04:05:35;99911.56;;;4.97;83.54
32875;BME280;40468;42.128;24.750;2023-03-03T04:07:07;99913.28;;;4.96;83.67
32875;BME280;40468;42.128;24.750;2023-03-03T04:08:38;99915.00;;;4.97;83.54
32875;BME280;40468;42.128;24.750;2023-03-03T04:10:10;99919.25;;;4.98;83.60
32875;BME280;40468;42.128;24.750;2023-03-03T04:11:41;99910.63;;;4.99;83.58
32875;BME280;40468;42.128;24.750;2023-03-03T04:13:13;99908.03;;;4.99;83.64
32875;BME280;40468;42.128;24.750;2023-03-03T04:14:46;99908.91;;;5.00;83.62
32875;BME280;40468;42.128;24.750;2023-03-03T04:16:17;99908.88;;;5.01;83.72
32875;BME280;40468;42.128;24.750;2023-03-03T04:17:49;99911.44;;;5.03;83.95
32875;BME280;40468;42.128;24.750;2023-03-03T04:19:21;99910.53;;;5.04;83.84
32875;BME280;40468;42.128;24.750;2023-03-03T04:20:52;99903.63;;;5.06;83.97
32875;BME280;40468;42.128;24.750;2023-03-03T04:22:23;99896.72;;;5.07;84.04
32875;BME280;40468;42.128;24.750;2023-03-03T04:23:55;99907.84;;;5.09;83.95
32875;BME280;40468;42.128;24.750;2023-03-03T04:25:26;99906.16;;;5.09;84.01
32875;BME280;40468;42.128;24.750;2023-03-03T04:26:57;99909.59;;;5.08;83.98
32875;BME280;40468;42.128;24.750;2023-03-03T04:28:30;99907.91;;;5.07;84.01
32875;BME280;40468;42.128;24.750;2023-03-03T04:30:03;99912.25;;;5.05;84.23
32875;BME280;40468;42.128;24.750;2023-03-03T04:31:35;99912.28;;;5.04;84.02
32875;BME280;40468;42.128;24.750;2023-03-03T04:33:06;99904.56;;;5.02;84.18
32875;BME280;40468;42.128;24.750;2023-03-03T04:34:38;99905.47;;;4.99;84.13
32875;BME280;40468;42.128;24.750;2023-03-03T04:36:09;99908.03;;;5.01;84.36
32875;BME280;40468;42.128;24.750;2023-03-03T04:37:41;99910.56;;;5.02;84.15
32875;BME280;40468;42.128;24.750;2023-03-03T04:39:12;99903.69;;;5.03;84.38
32875;BME280;40468;42.128;24.750;2023-03-03T04:40:44;99906.28;;;5.03;84.29
32875;BME280;40468;42.128;24.750;2023-03-03T04:42:15;99903.69;;;5.03;84.47
32875;BME280;40468;42.128;24.750;2023-03-03T04:43:46;99907.97;;;5.02;84.54
32875;BME280;40468;42.128;24.750;2023-03-03T04:45:19;99900.25;;;5.02;84.48
32875;BME280;40468;42.128;24.750;2023-03-03T04:46:51;99906.28;;;5.03;84.45
32875;BME280;40468;42.128;24.750;2023-03-03T04:48:22;99901.97;;;5.02;84.35
32875;BME280;40468;42.128;24.750;2023-03-03T04:49:54;99903.69;;;5.03;84.53
32875;BME280;40468;42.128;24.750;2023-03-03T04:51:26;99907.06;;;5.05;84.47
32875;BME280;40468;42.128;24.750;2023-03-03T04:52:57;99904.50;;;5.05;84.67
32875;BME280;40468;42.128;24.750;2023-03-03T04:54:29;99907.91;;;5.07;84.47
32875;BME280;40468;42.128;24.750;2023-03-03T04:56:01;99906.16;;;5.08;84.31
32875;BME280;40468;42.128;24.750;2023-03-03T04:57:31;99903.59;;;5.08;84.52
32875;BME280;40468;42.128;24.750;2023-03-03T04:59:03;99909.59;;;5.08;84.47
32875;BME280;40468;42.128;24.750;2023-03-03T05:00:36;99905.28;;;5.09;84.70
32875;BME280;40468;42.128;24.750;2023-03-03T05:02:07;99908.72;;;5.09;84.64
32875;BME280;40468;42.128;24.750;2023-03-03T05:03:39;99906.16;;;5.08;84.61
32875;BME280;40468;42.128;24.750;2023-03-03T05:05:11;99915.59;;;5.09;84.52
32875;BME280;40468;42.128;24.750;2023-03-03T05:06:42;99913.88;;;5.09;84.72
32875;BME280;40468;42.128;24.750;2023-03-03T05:08:13;99913.00;;;5.10;84.75
32875;BME280;40468;42.128;24.750;2023-03-03T05:09:45;99913.00;;;5.10;84.68
32875;BME280;40468;42.128;24.750;2023-03-03T05:11:17;99910.41;;;5.10;84.62
32875;BME280;40468;42.128;24.750;2023-03-03T05:12:48;99914.72;;;5.10;84.66
32875;BME280;40468;42.128;24.750;2023-03-03T05:14:19;99912.09;;;5.11;84.70
32875;BME280;40468;42.128;24.750;2023-03-03T05:15:53;99925.00;;;5.11;84.84
32875;BME280;40468;42.128;24.750;2023-03-03T05:17:25;99914.69;;;5.11;84.70
32875;BME280;40468;42.128;24.750;2023-03-03T05:18:57;99916.41;;;5.12;84.76
32875;BME280;40468;42.128;24.750;2023-03-03T05:20:29;99912.94;;;5.13;84.81
32875;BME280;40468;42.128;24.750;2023-03-03T05:22:00;99916.34;;;5.15;84.84
32875;BME280;40468;42.128;24.750;2023-03-03T05:23:31;99917.19;;;5.16;85.03
32875;BME280;40468;42.128;24.750;2023-03-03T05:25:03;99921.47;;;5.17;84.83
32875;BME280;40468;42.128;24.750;2023-03-03T05:26:34;99919.72;;;5.17;84.88
32875;BME280;40468;42.128;24.750;2023-03-03T05:28:05;99923.13;;;5.19;84.76
32875;BME280;40468;42.128;24.750;2023-03-03T05:29:37;99916.22;;;5.20;84.73
32875;BME280;40468;42.128;24.750;2023-03-03T05:31:09;99914.50;;;5.20;84.89
32875;BME280;40468;42.128;24.750;2023-03-03T05:32:40;99918.78;;;5.21;84.84
32875;BME280;40468;42.128;24.750;2023-03-03T05:34:12;99917.06;;;5.22;84.64
32875;BME280;40468;42.128;24.750;2023-03-03T05:35:44;99923.91;;;5.23;84.76
32875;BME280;40468;42.128;24.750;2023-03-03T05:37:15;99925.63;;;5.22;84.63
32875;BME280;40468;42.128;24.750;2023-03-03T05:38:46;99921.31;;;5.24;84.62
32875;BME280;40468;42.128;24.750;2023-03-03T05:40:17;99921.25;;;5.26;84.68
32875;BME280;40468;42.128;24.750;2023-03-03T05:41:48;99920.41;;;5.27;84.72
32875;BME280;40468;42.128;24.750;2023-03-03T05:43:20;99916.91;;;5.28;84.72
32875;BME280;40468;42.128;24.750;2023-03-03T05:44:52;99921.16;;;5.31;84.55
32875;BME280;40468;42.128;24.750;2023-03-03T05:46:25;99922.00;;;5.33;84.56
32875;BME280;40468;42.128;24.750;2023-03-03T05:47:56;99921.09;;;5.34;84.42
32875;BME280;40468;42.128;24.750;2023-03-03T05:49:28;99927.09;;;5.36;84.46
32875;BME280;40468;42.128;24.750;2023-03-03T05:50:58;99924.50;;;5.36;84.31
32875;BME280;40468;42.128;24.750;2023-03-03T05:52:30;99933.13;;;5.35;84.21
32875;BME280;40468;42.128;24.750;2023-03-03T05:54:02;99930.53;;;5.36;84.43
32875;BME280;40468;42.128;24.750;2023-03-03T05:55:33;99927.09;;;5.36;84.33
32875;BME280;40468;42.128;24.750;2023-03-03T05:57:05;99926.19;;;5.37;84.58
32875;BME280;40468;42.128;24.750;2023-03-03T05:58:36;99930.47;;;5.38;84.42
32875;BME280;40468;42.128;24.750;2023-03-03T06:00:08;99925.34;;;5.36;84.31
32875;BME280;40468;42.128;24.750;2023-03-03T06:01:42;99930.47;;;5.38;84.56
32875;BME280;40468;42.128;24.750;2023-03-03T06:03:14;99928.75;;;5.38;84.45
32875;BME280;40468;42.128;24.750;2023-03-03T06:04:46;99922.72;;;5.38;84.55
32875;BME280;40468;42.128;24.750;2023-03-03T06:06:17;99924.44;;;5.39;84.63
32875;BME280;40468;42.128;24.750;2023-03-03T06:07:49;99928.72;;;5.40;84.47
32875;BME280;40468;42.128;24.750;2023-03-03T06:09:20;99935.56;;;5.41;84.51
32875;BME280;40468;42.128;24.750;2023-03-03T06:10:52;99934.69;;;5.42;84.47
32875;BME280;40468;42.128;24.750;2023-03-03T06:12:22;99936.41;;;5.43;84.58
32875;BME280;40468;42.128;24.750;2023-03-03T06:13:54;99938.09;;;5.44;84.50
32875;BME280;40468;42.128;24.750;2023-03-03T06:15:26;99932.91;;;5.44;84.64
32875;BME280;40468;42.128;24.750;2023-03-03T06:16:59;99941.50;;;5.46;84.35
32875;BME280;40468;42.128;24.750;2023-03-03T06:18:30;99938.00;;;5.47;84.39
32875;BME280;40468;42.128;24.750;2023-03-03T06:20:02;99940.59;;;5.47;84.39
32875;BME280;40468;42.128;24.750;2023-03-03T06:21:34;99944.91;;;5.46;84.56
32875;BME280;40468;42.128;24.750;2023-03-03T06:23:05;99946.66;;;5.46;84.58
32875;BME280;40468;42.128;24.750;2023-03-03T06:24:37;99937.16;;;5.46;84.50
32875;BME280;40468;42.128;24.750;2023-03-03T06:26:09;99938.00;;;5.47;84.64
32875;BME280;40468;42.128;24.750;2023-03-03T06:27:39;99941.50;;;5.46;84.44
32875;BME280;40468;42.128;24.750;2023-03-03T06:29:11;99943.19;;;5.47;84.46
32875;BME280;40468;42.128;24.750;2023-03-03T06:30:42;99950.09;;;5.46;84.61
32875;BME280;40468;42.128;24.750;2023-03-03T06:32:15;99950.09;;;5.46;84.61
32875;BME280;40468;42.128;24.750;2023-03-03T06:33:47;99948.34;;;5.47;84.39
32875;BME280;40468;42.128;24.750;2023-03-03T06:35:18;99944.91;;;5.48;84.31
32875;BME280;40468;42.128;24.750;2023-03-03T06:36:50;99949.16;;;5.49;84.52
32875;BME280;40468;42.128;24.750;2023-03-03T06:38:22;99955.16;;;5.51;84.55
32875;BME280;40468;42.128;24.750;2023-03-03T06:39:54;99944.78;;;5.53;84.37
32875;BME280;40468;42.128;24.750;2023-03-03T06:41:25;99947.34;;;5.54;84.18
32875;BME280;40468;42.128;24.750;2023-03-03T06:42:57;99938.69;;;5.55;84.25
32875;BME280;40468;42.128;24.750;2023-03-03T06:44:28;99948.16;;;5.56;84.01
32875;BME280;40468;42.128;24.750;2023-03-03T06:46:00;99942.09;;;5.57;84.00
32875;BME280;40468;42.128;24.750;2023-03-03T06:47:33;99949.81;;;5.59;83.94
32875;BME280;40468;42.128;24.750;2023-03-03T06:49:04;99948.97;;;5.58;84.08
32875;BME280;40468;42.128;24.750;2023-03-03T06:50:36;99952.38;;;5.59;83.91
32875;BME280;40468;42.128;24.750;2023-03-03T06:52:10;99950.69;;;5.59;84.10
32875;BME280;40468;42.128;24.750;2023-03-03T06:53:42;99948.91;;;5.61;84.13
32875;BME280;40468;42.128;24.750;2023-03-03T06:55:16;99954.88;;;5.65;84.03
32875;BME280;40468;42.128;24.750;2023-03-03T06:56:48;99947.03;;;5.68;83.87
32875;BME280;40468;42.128;24.750;2023-03-03T06:58:23;99948.72;;;5.69;83.91
32875;BME280;40468;42.128;24.750;2023-03-03T06:59:56;99947.81;;;5.72;83.73
32875;BME280;40468;42.128;24.750;2023-03-03T07:01:28;99946.91;;;5.74;83.75
32875;BME280;40468;42.128;24.750;2023-03-03T07:03:06;99943.38;;;5.77;83.70
32875;BME280;40468;42.128;24.750;2023-03-03T07:04:38;99950.22;;;5.79;83.60
32875;BME280;40468;42.128;24.750;2023-03-03T07:06:14;99944.13;;;5.82;83.62
32875;BME280;40468;42.128;24.750;2023-03-03T07:07:46;99943.19;;;5.86;83.84
32875;BME280;40468;42.128;24.750;2023-03-03T07:09:20;99943.13;;;5.87;83.60
32875;BME280;40468;42.128;24.750;2023-03-03T07:10:53;99944.81;;;5.90;83.52
32875;BME280;40468;42.128;24.750;2023-03-03T07:12:26;99943.06;;;5.90;83.50
32875;BME280;40468;42.128;24.750;2023-03-03T07:13:57;99950.75;;;5.95;83.33
32875;BME280;40468;42.128;24.750;2023-03-03T07:15:29;99953.25;;;5.98;83.44
32875;BME280;40468;42.128;24.750;2023-03-03T07:17:08;99954.06;;;6.00;83.33
32875;BME280;40468;42.128;24.750;2023-03-03T07:18:43;99948.84;;;6.02;83.21
32875;BME280;40468;42.128;24.750;2023-03-03T07:20:18;99946.22;;;6.03;83.07
32875;BME280;40468;42.128;24.750;2023-03-03T07:21:50;99947.03;;;6.07;83.19
32875;BME280;40468;42.128;24.750;2023-03-03T07:23:23;99945.22;;;6.09;83.12
32875;BME280;40468;42.128;24.750;2023-03-03T07:24:56;99946.88;;;6.11;83.15
32875;BME280;40468;42.128;24.750;2023-03-03T07:26:30;99947.78;;;6.10;82.79
32875;BME280;40468;42.128;24.750;2023-03-03T07:28:09;99946.88;;;6.11;82.97
32875;BME280;40468;42.128;24.750;2023-03-03T07:29:44;99945.13;;;6.13;82.83
32875;BME280;40468;42.128;24.750;2023-03-03T07:31:25;99952.81;;;6.15;82.88
32875;BME280;40468;42.128;24.750;2023-03-03T07:32:57;99951.13;;;6.14;82.92
32875;BME280;40468;42.128;24.750;2023-03-03T07:34:34;99950.22;;;6.17;82.87
32875;BME280;40468;42.128;24.750;2023-03-03T07:36:16;99947.59;;;6.18;82.80
32875;BME280;40468;42.128;24.750;2023-03-03T07:37:50;99947.56;;;6.20;82.73
32875;BME280;40468;42.128;24.750;2023-03-03T07:39:27;99946.66;;;6.21;82.60
32875;BME280;40468;42.128;24.750;2023-03-03T07:41:01;99945.78;;;6.22;82.63
32875;BME280;40468;42.128;24.750;2023-03-03T07:42:34;99946.59;;;6.24;82.32
32875;BME280;40468;42.128;24.750;2023-03-03T07:44:11;99939.66;;;6.26;82.28
32875;BME280;40468;42.128;24.750;2023-03-03T07:45:46;99948.22;;;6.28;82.40
32875;BME280;40468;42.128;24.750;2023-03-03T07:47:19;99938.72;;;6.28;82.33
32875;BME280;40468;42.128;24.750;2023-03-03T07:48:50;99948.16;;;6.31;82.12
32875;BME280;40468;42.128;24.750;2023-03-03T07:50:24;99944.72;;;6.30;82.11
32875;BME280;40468;42.128;24.750;2023-03-03T07:51:56;99953.25;;;6.32;82.30
32875;BME280;40468;42.128;24.750;2023-03-03T07:53:28;99954.94;;;6.35;82.18
32875;BME280;40468;42.128;24.750;2023-03-03T07:55:17;99950.56;;;6.37;82.13
32875;BME280;40468;42.128;24.750;2023-03-03T07:56:50;99948.88;;;6.36;81.86
32875;BME280;40468;42.128;24.750;2023-03-03T07:58:23;99945.47;;;6.34;81.64
32875;BME280;40468;42.128;24.750;2023-03-03T07:59:59;99947.25;;;6.32;81.63
32875;BME280;40468;42.128;24.750;2023-03-03T08:01:38;99943.81;;;6.31;81.51
32875;BME280;40468;42.128;24.750;2023-03-03T08:03:13;99945.56;;;6.31;81.28
32875;BME280;40468;42.128;24.750;2023-03-03T08:04:47;99943.75;;;6.33;81.30
32875;BME280;40468;42.128;24.750;2023-03-03T08:06:36;99944.56;;;6.35;81.46
32875;BME280;40468;42.128;24.750;2023-03-03T08:08:13;99947.13;;;6.36;81.17
32875;BME280;40468;42.128;24.750;2023-03-03T08:09:47;99931.56;;;6.38;81.33
32875;BME280;40468;42.128;24.750;2023-03-03T08:11:20;99930.69;;;6.39;81.14
32875;BME280;40468;42.128;24.750;2023-03-03T08:12:51;99929.75;;;6.42;81.29